Time;durP1;ratioP1;P1;durP2;ratioP2;P2;SDS_P1;SDS_P2;PMS_P1;PMS_P2;Temp;Humidity;BMP_temperature;BMP_pressure;BME280_temperature;BME280_humidity;BME280_pressure;Samples;Min_cycle;Max_cycle;Signal;HPM_P1;HPM_P2
2023/07/20 00:01:52;;;;;;;90.10;54.05;;;20.10;71.00;;;;;;4964103;28;96112;-81
2023/07/20 00:04:18;;;;;;;90.70;54.28;;;20.10;71.10;;;;;;4961766;28;96004;-81
2023/07/20 00:06:44;;;;;;;90.50;53.90;;;20.10;71.20;;;;;;4961143;28;101638;-81
2023/07/20 00:09:09;;;;;;;90.43;54.08;;;20.10;71.10;;;;;;4964224;28;94976;-81
2023/07/20 00:11:38;;;;;;;88.72;53.75;;;20.10;71.20;;;;;;4962463;28;96027;-81
2023/07/20 00:14:05;;;;;;;88.25;54.05;;;20.10;71.20;;;;;;4963464;28;96409;-81
2023/07/20 00:16:30;;;;;;;90.20;53.80;;;20.00;71.20;;;;;;4964965;28;94746;-81
2023/07/20 00:18:56;;;;;;;89.45;54.03;;;20.00;71.30;;;;;;4963037;28;95412;-81
2023/07/20 00:21:21;;;;;;;89.32;53.95;;;20.00;71.20;;;;;;4961955;28;96617;-81
2023/07/20 00:23:47;;;;;;;89.57;53.55;;;20.00;71.30;;;;;;4965315;28;95870;-81
2023/07/20 00:26:13;;;;;;;89.97;54.28;;;20.00;71.30;;;;;;4959437;28;97066;-81
2023/07/20 00:28:38;;;;;;;88.65;53.53;;;20.00;71.40;;;;;;4960834;28;95350;-81
2023/07/20 00:31:04;;;;;;;91.65;53.97;;;19.90;71.40;;;;;;4944930;28;98138;-81
2023/07/20 00:33:30;;;;;;;90.60;54.13;;;19.90;71.40;;;;;;4962234;28;96789;-81
2023/07/20 00:35:59;;;;;;;88.78;53.75;;;19.90;72.10;;;;;;4963661;28;98523;-81
2023/07/20 00:38:25;;;;;;;88.25;53.58;;;19.90;71.50;;;;;;4959543;28;96233;-81
2023/07/20 00:40:51;;;;;;;89.03;53.58;;;19.80;71.40;;;;;;4949375;28;97216;-81
2023/07/20 00:43:16;;;;;;;89.28;53.83;;;19.80;71.40;;;;;;4949338;28;96653;-81
2023/07/20 00:45:43;;;;;;;88.50;53.63;;;19.80;71.60;;;;;;4953884;28;95659;-81
2023/07/20 00:48:08;;;;;;;87.85;53.25;;;19.80;71.70;;;;;;4958742;28;94964;-80
2023/07/20 00:50:34;;;;;;;88.88;53.80;;;19.80;72.10;;;;;;4958433;28;95907;-81
2023/07/20 00:53:03;;;;;;;90.03;53.70;;;19.80;71.90;;;;;;4956107;28;95788;-81
2023/07/20 00:55:29;;;;;;;88.72;53.88;;;19.80;71.70;;;;;;4960931;28;98176;-81
2023/07/20 00:57:55;;;;;;;90.75;53.75;;;19.80;71.80;;;;;;4961504;28;97423;-81
2023/07/20 01:00:21;;;;;;;88.82;53.72;;;19.80;71.90;;;;;;4963580;28;95575;-81
2023/07/20 01:02:46;;;;;;;88.45;53.50;;;19.70;71.90;;;;;;4964669;28;96160;-81
2023/07/20 01:05:13;;;;;;;88.90;53.55;;;19.70;72.10;;;;;;4962929;28;95587;-81
2023/07/20 01:08:02;;;;;;;89.05;53.45;;;19.70;71.80;;;;;;4966941;28;94872;-82
2023/07/20 01:10:43;;;;;;;88.95;53.70;;;19.70;71.90;;;;;;4968906;28;97062;-81
2023/07/20 01:13:11;;;;;;;88.05;53.63;;;19.70;72.20;;;;;;4968859;28;103314;-81
2023/07/20 01:15:36;;;;;;;90.68;53.88;;;19.70;72.10;;;;;;4967490;28;97826;-81
2023/07/20 01:18:04;;;;;;;88.70;53.88;;;19.70;71.90;;;;;;4966468;28;95252;-81
2023/07/20 01:20:32;;;;;;;89.05;53.70;;;19.70;72.20;;;;;;4962951;28;96947;-80
2023/07/20 01:23:09;;;;;;;88.78;53.88;;;19.60;72.10;;;;;;4965409;28;96275;-81
2023/07/20 01:26:16;;;;;;;88.55;53.88;;;19.60;71.90;;;;;;4965517;28;95746;-81
2023/07/20 01:29:05;;;;;;;90.32;53.75;;;19.60;72.20;;;;;;4965006;28;96456;-81
2023/07/20 01:31:33;;;;;;;88.95;53.47;;;19.60;72.00;;;;;;4965375;28;96699;-81
2023/07/20 01:34:01;;;;;;;88.80;53.63;;;19.60;72.00;;;;;;4962770;28;98869;-81
2023/07/20 01:36:30;;;;;;;89.57;53.85;;;19.60;72.60;;;;;;4964433;28;97085;-81
2023/07/20 01:38:56;;;;;;;89.43;53.72;;;19.60;71.90;;;;;;4966685;28;97528;-81
2023/07/20 01:41:22;;;;;;;88.50;53.78;;;19.60;71.90;;;;;;4967463;28;99271;-81
2023/07/20 01:43:48;;;;;;;90.40;53.72;;;19.50;71.90;;;;;;4965113;28;95586;-81
2023/07/20 01:46:14;;;;;;;91.35;53.53;;;19.50;71.80;;;;;;4962206;28;97038;-80
2023/07/20 01:48:39;;;;;;;89.32;53.88;;;19.50;72.10;;;;;;4964917;28;95518;-81
2023/07/20 01:51:05;;;;;;;90.78;53.70;;;19.50;72.80;;;;;;4964625;28;96284;-81
2023/07/20 01:53:31;;;;;;;90.50;53.92;;;19.50;72.40;;;;;;4965155;28;97138;-81
2023/07/20 01:55:57;;;;;;;88.78;53.67;;;19.50;72.50;;;;;;4964609;28;98920;-81
2023/07/20 01:58:23;;;;;;;88.70;53.85;;;19.50;72.60;;;;;;4969238;28;96240;-82
2023/07/20 02:00:48;;;;;;;88.90;53.53;;;19.50;72.60;;;;;;4965248;28;96841;-81
2023/07/20 02:03:14;;;;;;;91.40;54.17;;;19.40;72.50;;;;;;4965910;28;95564;-82
2023/07/20 02:05:42;;;;;;;88.75;53.58;;;19.40;72.60;;;;;;4967597;28;97784;-82
2023/07/20 02:08:08;;;;;;;88.82;53.92;;;19.40;72.50;;;;;;4967729;28;95666;-81
2023/07/20 02:10:34;;;;;;;88.55;53.53;;;19.40;72.50;;;;;;4965273;28;96648;-82
2023/07/20 02:12:59;;;;;;;89.88;53.50;;;19.40;72.70;;;;;;4966279;28;100669;-81
2023/07/20 02:15:25;;;;;;;88.65;53.30;;;19.40;72.40;;;;;;4966000;28;94860;-81
2023/07/20 02:17:51;;;;;;;89.25;54.20;;;19.40;72.70;;;;;;4967161;28;96148;-82
2023/07/20 02:20:17;;;;;;;88.60;53.63;;;19.40;72.40;;;;;;4964542;28;100848;-81
2023/07/20 02:22:43;;;;;;;89.32;53.95;;;19.30;72.30;;;;;;4964417;28;95605;-81
2023/07/20 02:25:09;;;;;;;88.85;53.90;;;19.30;72.40;;;;;;4967388;28;94923;-82
2023/07/20 02:27:35;;;;;;;90.47;53.88;;;19.40;72.90;;;;;;4966555;28;95314;-82
2023/07/20 02:30:00;;;;;;;90.00;53.95;;;19.30;72.40;;;;;;4965511;28;98644;-81
2023/07/20 02:32:26;;;;;;;90.80;53.80;;;19.30;72.60;;;;;;4963649;28;96023;-81
2023/07/20 02:34:52;;;;;;;88.57;53.72;;;19.30;72.00;;;;;;4964595;28;96175;-81
2023/07/20 02:37:17;;;;;;;90.13;53.88;;;19.30;72.10;;;;;;4964833;28;100259;-81
2023/07/20 02:39:43;;;;;;;91.93;54.03;;;19.30;72.90;;;;;;4961504;28;96238;-82
2023/07/20 02:42:09;;;;;;;88.25;53.88;;;19.30;72.40;;;;;;4968278;28;96681;-82
2023/07/20 02:44:34;;;;;;;88.78;54.10;;;19.30;72.10;;;;;;4965483;28;98200;-81
2023/07/20 02:47:00;;;;;;;88.32;53.75;;;19.30;72.10;;;;;;4964329;28;96561;-81
2023/07/20 02:49:26;;;;;;;90.10;54.05;;;19.30;72.50;;;;;;4965698;28;95892;-82
2023/07/20 02:51:52;;;;;;;89.63;54.28;;;19.20;72.50;;;;;;4962209;28;96080;-82
2023/07/20 02:54:18;;;;;;;89.05;53.92;;;19.20;72.70;;;;;;4964211;28;95432;-82
2023/07/20 02:56:43;;;;;;;88.57;53.47;;;19.20;72.50;;;;;;4960879;28;95584;-81
2023/07/20 02:59:09;;;;;;;88.93;53.70;;;19.20;72.60;;;;;;4962400;28;96633;-81
2023/07/20 03:01:35;;;;;;;90.28;54.35;;;19.20;72.50;;;;;;4962301;28;100264;-80
2023/07/20 03:04:00;;;;;;;88.38;54.00;;;19.10;72.30;;;;;;4964842;28;97780;-81
2023/07/20 03:06:26;;;;;;;90.45;53.85;;;19.10;73.00;;;;;;4961457;28;96656;-81
2023/07/20 03:08:53;;;;;;;88.57;53.67;;;19.10;72.70;;;;;;4961499;28;99287;-81
2023/07/20 03:11:20;;;;;;;88.80;53.90;;;19.10;72.80;;;;;;4947734;28;97862;-81
2023/07/20 03:13:46;;;;;;;87.13;53.65;;;19.10;72.60;;;;;;4961563;28;95395;-81
2023/07/20 03:16:15;;;;;;;89.55;53.72;;;19.10;73.00;;;;;;4964640;28;97760;-80
2023/07/20 03:18:41;;;;;;;89.40;54.13;;;19.10;73.00;;;;;;4963292;28;96133;-81
2023/07/20 03:21:08;;;;;;;88.78;53.80;;;19.10;73.10;;;;;;4947308;28;97489;-81
2023/07/20 03:23:34;;;;;;;90.22;53.72;;;19.10;73.00;;;;;;4966097;28;100898;-81
2023/07/20 03:26:00;;;;;;;88.88;53.75;;;19.10;73.00;;;;;;4965212;28;97774;-81
2023/07/20 03:28:25;;;;;;;91.07;53.97;;;19.10;73.40;;;;;;4958330;28;95770;-82
2023/07/20 03:30:57;;;;;;;91.63;54.30;;;19.10;72.80;;;;;;4959735;28;98875;-82
2023/07/20 03:33:25;;;;;;;89.60;53.85;;;19.00;72.60;;;;;;4961143;28;96116;-82
2023/07/20 03:35:51;;;;;;;89.78;54.03;;;19.00;73.20;;;;;;4960359;28;95742;-81
2023/07/20 03:38:16;;;;;;;88.53;53.38;;;19.00;73.00;;;;;;4959099;28;98182;-82
2023/07/20 03:40:56;;;;;;;90.60;53.97;;;19.00;73.10;;;;;;4956775;28;97278;-81
2023/07/20 03:43:23;;;;;;;88.85;54.22;;;19.00;73.20;;;;;;4959368;28;95228;-81
2023/07/20 03:45:49;;;;;;;88.47;53.83;;;19.00;73.40;;;;;;4963073;28;95372;-81
2023/07/20 03:48:19;;;;;;;89.00;53.78;;;19.00;73.00;;;;;;4957412;28;98074;-81
2023/07/20 03:50:45;;;;;;;88.75;54.22;;;18.90;72.80;;;;;;4959774;28;97126;-81
2023/07/20 03:53:12;;;;;;;88.38;53.35;;;18.90;73.00;;;;;;4960325;28;96494;-81
2023/07/20 03:55:38;;;;;;;89.70;54.05;;;18.90;73.20;;;;;;4964020;28;96945;-81
2023/07/20 03:58:03;;;;;;;87.85;53.65;;;18.90;73.40;;;;;;4958607;28;101622;-81
2023/07/20 04:00:29;;;;;;;89.93;54.05;;;18.90;73.10;;;;;;4961736;28;97052;-81
2023/07/20 04:02:55;;;;;;;87.80;54.03;;;18.90;73.00;;;;;;4961782;28;95811;-81
2023/07/20 04:05:20;;;;;;;87.78;53.80;;;18.80;72.90;;;;;;4959583;28;96261;-81
2023/07/20 04:07:46;;;;;;;90.88;54.10;;;18.90;72.90;;;;;;4959508;28;99582;-81
2023/07/20 04:10:12;;;;;;;91.30;54.40;;;18.80;73.20;;;;;;4960497;28;95741;-81
2023/07/20 04:12:38;;;;;;;89.05;53.78;;;18.80;73.90;;;;;;4961154;28;96216;-81
2023/07/20 04:15:04;;;;;;;87.65;53.83;;;18.80;73.90;;;;;;4960380;28;95557;-81
2023/07/20 04:17:29;;;;;;;89.00;53.88;;;18.80;73.60;;;;;;4959920;28;99768;-81
2023/07/20 04:19:55;;;;;;;87.80;53.88;;;18.80;73.60;;;;;;4959284;28;97441;-81
2023/07/20 04:22:21;;;;;;;89.22;53.90;;;18.80;73.80;;;;;;4958930;28;98543;-81
2023/07/20 04:24:47;;;;;;;89.03;54.03;;;18.70;73.80;;;;;;4961900;28;94727;-81
2023/07/20 04:27:12;;;;;;;88.05;53.78;;;18.70;73.80;;;;;;4963839;28;97541;-81
2023/07/20 04:29:38;;;;;;;89.05;54.03;;;18.70;73.90;;;;;;4965053;28;98599;-82
2023/07/20 04:32:04;;;;;;;87.70;53.58;;;18.70;73.20;;;;;;4964289;28;97232;-81
2023/07/20 04:34:29;;;;;;;88.53;54.03;;;18.70;73.60;;;;;;4963656;28;95904;-81
2023/07/20 04:36:55;;;;;;;89.45;53.92;;;18.60;73.70;;;;;;4960797;28;96238;-81
2023/07/20 04:39:20;;;;;;;88.93;54.13;;;18.70;73.70;;;;;;4966725;28;95794;-82
2023/07/20 04:41:46;;;;;;;88.82;53.60;;;18.70;74.00;;;;;;4970143;28;95008;-82
2023/07/20 04:44:13;;;;;;;86.20;53.60;;;18.70;73.50;;;;;;4967787;28;95178;-82
2023/07/20 04:46:40;;;;;;;89.05;53.75;;;18.70;73.70;;;;;;4965937;28;99846;-82
2023/07/20 04:49:06;;;;;;;88.80;53.95;;;18.60;73.90;;;;;;4968688;28;98986;-81
2023/07/20 04:51:31;;;;;;;89.38;53.65;;;18.70;73.70;;;;;;4965573;28;98024;-82
2023/07/20 04:53:57;;;;;;;88.80;53.80;;;18.60;74.30;;;;;;4968195;28;95197;-81
2023/07/20 04:56:24;;;;;;;88.93;54.08;;;18.70;73.70;;;;;;4969624;28;96158;-81
2023/07/20 04:58:50;;;;;;;87.63;54.10;;;18.70;73.80;;;;;;4966349;28;95739;-81
2023/07/20 05:01:15;;;;;;;89.15;54.00;;;18.70;73.60;;;;;;4964523;28;96438;-81
2023/07/20 05:03:41;;;;;;;87.65;53.47;;;18.70;73.40;;;;;;4967888;28;95211;-81
2023/07/20 05:06:07;;;;;;;88.57;54.13;;;18.60;73.40;;;;;;4965617;28;96573;-81
2023/07/20 05:08:32;;;;;;;88.50;54.15;;;18.60;73.00;;;;;;4963789;28;96243;-82
2023/07/20 05:10:59;;;;;;;88.78;53.92;;;18.60;73.40;;;;;;4963098;28;98041;-82
2023/07/20 05:13:25;;;;;;;90.47;54.35;;;18.60;73.20;;;;;;4967792;28;95066;-82
2023/07/20 05:15:52;;;;;;;88.90;53.80;;;18.70;73.10;;;;;;4965902;28;95918;-81
2023/07/20 05:18:19;;;;;;;89.85;54.13;;;18.60;73.80;;;;;;4964808;28;94999;-81
2023/07/20 05:20:47;;;;;;;89.00;54.67;;;18.70;73.10;;;;;;4964759;28;99648;-82
2023/07/20 05:23:13;;;;;;;88.47;54.08;;;18.70;72.60;;;;;;4965260;28;96810;-81
2023/07/20 05:25:38;;;;;;;89.10;53.97;;;18.70;72.60;;;;;;4963312;28;97746;-81
2023/07/20 05:28:04;;;;;;;89.97;54.45;;;18.70;72.50;;;;;;4962581;28;97323;-81
2023/07/20 05:30:29;;;;;;;88.68;54.00;;;18.70;72.30;;;;;;4966315;28;96543;-81
2023/07/20 05:32:55;;;;;;;89.05;54.30;;;18.70;72.80;;;;;;4965917;28;96796;-81
2023/07/20 05:35:21;;;;;;;89.88;54.35;;;18.70;72.60;;;;;;4962514;28;96008;-82
2023/07/20 05:37:52;;;;;;;88.00;53.78;;;18.70;72.60;;;;;;4966114;28;96271;-81
2023/07/20 05:40:18;;;;;;;88.90;54.25;;;18.80;72.90;;;;;;4967477;28;96633;-81
2023/07/20 05:42:46;;;;;;;88.57;53.97;;;18.80;73.10;;;;;;4967496;28;95217;-82
2023/07/20 05:45:12;;;;;;;87.75;54.03;;;18.80;73.00;;;;;;4957725;28;95577;-82
2023/07/20 05:47:38;;;;;;;88.68;54.17;;;18.80;72.90;;;;;;4960376;28;95537;-82
2023/07/20 05:50:04;;;;;;;89.03;54.10;;;18.80;72.50;;;;;;4956829;28;95773;-81
2023/07/20 05:52:29;;;;;;;90.30;54.25;;;18.80;72.20;;;;;;4961131;28;96077;-81
2023/07/20 05:54:55;;;;;;;89.80;54.78;;;18.90;72.20;;;;;;4958336;28;96943;-81
2023/07/20 05:57:21;;;;;;;90.10;54.25;;;18.90;72.20;;;;;;4961815;28;97615;-81
2023/07/20 05:59:46;;;;;;;87.95;54.10;;;18.90;71.90;;;;;;4960459;28;96604;-82
2023/07/20 06:02:12;;;;;;;90.15;54.63;;;19.00;71.80;;;;;;4965174;28;98711;-81
2023/07/20 06:04:39;;;;;;;89.82;54.40;;;19.00;71.30;;;;;;4963298;28;95638;-82
2023/07/20 06:07:05;;;;;;;90.03;54.65;;;19.00;71.40;;;;;;4965495;28;95561;-82
2023/07/20 06:09:31;;;;;;;89.25;54.40;;;19.10;71.10;;;;;;4963720;28;96902;-82
2023/07/20 06:11:56;;;;;;;90.80;54.90;;;19.10;71.00;;;;;;4965270;28;96522;-80
2023/07/20 06:14:22;;;;;;;88.10;54.33;;;19.10;70.70;;;;;;4942867;28;98642;-81
2023/07/20 06:16:48;;;;;;;91.68;54.63;;;19.20;71.10;;;;;;4959014;28;98046;-81
2023/07/20 06:19:13;;;;;;;89.43;54.92;;;19.20;71.10;;;;;;4959076;28;94856;-80
2023/07/20 06:21:39;;;;;;;88.45;54.40;;;19.30;70.70;;;;;;4968624;28;95498;-80
2023/07/20 06:24:05;;;;;;;92.38;55.05;;;19.30;71.00;;;;;;4985793;28;97168;-81
2023/07/20 06:26:32;;;;;;;91.38;55.20;;;19.40;70.30;;;;;;4988184;28;94562;-81
2023/07/20 06:28:58;;;;;;;92.03;54.80;;;19.40;69.90;;;;;;4990875;28;94373;-81
2023/07/20 06:31:23;;;;;;;87.53;53.78;;;19.50;69.80;;;;;;4969375;28;97655;-81
2023/07/20 06:33:49;;;;;;;88.82;54.08;;;19.50;72.80;;;;;;4962249;28;97732;-81
2023/07/20 06:36:18;;;;;;;90.57;53.97;;;19.60;70.30;;;;;;4963837;28;97173;-81
2023/07/20 06:38:43;;;;;;;89.93;54.53;;;19.60;70.70;;;;;;4962103;28;100216;-81
2023/07/20 06:41:09;;;;;;;89.72;54.80;;;19.60;69.50;;;;;;4963154;28;95639;-81
2023/07/20 06:43:35;;;;;;;89.20;54.00;;;19.70;70.30;;;;;;4962381;28;95642;-81
2023/07/20 06:46:00;;;;;;;90.53;54.90;;;19.70;72.10;;;;;;4961395;28;96772;-81
2023/07/20 06:48:26;;;;;;;89.90;54.63;;;19.80;70.10;;;;;;4961930;28;97165;-81
2023/07/20 06:50:52;;;;;;;89.63;54.47;;;19.80;69.30;;;;;;4961354;28;95711;-81
2023/07/20 06:53:17;;;;;;;92.43;55.13;;;19.80;69.50;;;;;;4960768;28;96237;-81
2023/07/20 06:55:43;;;;;;;88.88;54.28;;;19.90;69.30;;;;;;4961784;28;97232;-81
2023/07/20 06:58:10;;;;;;;89.88;54.70;;;20.00;70.10;;;;;;4960134;28;95123;-82
2023/07/20 07:00:35;;;;;;;90.20;55.03;;;20.00;69.80;;;;;;4956552;28;95734;-81
2023/07/20 07:03:02;;;;;;;89.88;54.38;;;20.10;69.60;;;;;;4959774;28;96359;-81
2023/07/20 07:05:28;;;;;;;90.05;54.58;;;20.10;70.40;;;;;;4957593;28;95546;-83
2023/07/20 07:07:53;;;;;;;90.55;54.63;;;20.10;69.30;;;;;;4961342;28;95178;-82
2023/07/20 07:10:19;;;;;;;91.40;54.40;;;20.10;70.20;;;;;;4958713;28;97791;-81
2023/07/20 07:12:44;;;;;;;90.18;54.17;;;20.10;69.30;;;;;;4962596;28;96269;-81
2023/07/20 07:15:13;;;;;;;90.65;54.70;;;20.10;70.10;;;;;;4956926;28;97731;-82
2023/07/20 07:17:38;;;;;;;89.45;54.30;;;20.20;70.10;;;;;;4959688;28;96025;-81
2023/07/20 07:20:05;;;;;;;90.70;54.97;;;20.10;70.30;;;;;;4960560;28;95238;-82
2023/07/20 07:22:31;;;;;;;89.25;54.22;;;20.20;70.00;;;;;;4962103;28;97543;-80
2023/07/20 07:24:56;;;;;;;89.82;54.58;;;20.20;70.40;;;;;;4942843;28;97047;-82
2023/07/20 07:27:22;;;;;;;89.82;54.67;;;20.20;69.90;;;;;;4959888;28;96286;-81
2023/07/20 07:29:49;;;;;;;90.25;54.72;;;20.30;69.70;;;;;;4960638;28;96014;-81
2023/07/20 07:32:15;;;;;;;91.05;54.33;;;20.30;70.30;;;;;;4958578;28;99776;-81
2023/07/20 07:34:41;;;;;;;90.28;55.05;;;20.40;70.60;;;;;;4959544;28;96016;-81
2023/07/20 07:37:07;;;;;;;91.07;54.45;;;20.40;69.50;;;;;;4963150;28;99490;-81
2023/07/20 07:39:33;;;;;;;89.28;54.17;;;20.50;69.80;;;;;;4946419;28;95138;-82
2023/07/20 07:41:58;;;;;;;90.78;54.78;;;20.60;73.30;;;;;;4961427;28;95181;-82
2023/07/20 07:44:24;;;;;;;93.22;55.65;;;20.60;71.00;;;;;;4965783;28;96478;-83
2023/07/20 07:46:50;;;;;;;92.72;55.60;;;20.70;73.40;;;;;;4965848;28;94953;-82
2023/07/20 07:49:16;;;;;;;96.57;56.15;;;20.70;72.50;;;;;;4964458;28;98184;-83
2023/07/20 07:51:42;;;;;;;93.57;55.47;;;20.80;74.40;;;;;;4961280;28;96073;-82
2023/07/20 07:54:08;;;;;;;93.15;55.90;;;20.80;72.50;;;;;;4968994;28;95477;-83
2023/07/20 07:56:33;;;;;;;94.80;55.22;;;20.80;73.10;;;;;;4967083;28;95071;-82
2023/07/20 07:58:59;;;;;;;91.47;54.85;;;20.80;72.10;;;;;;4966715;28;95497;-82
2023/07/20 08:01:25;;;;;;;90.55;55.17;;;20.90;71.90;;;;;;4963323;28;95818;-83
2023/07/20 08:03:50;;;;;;;90.85;54.65;;;20.90;72.00;;;;;;4963854;28;96920;-82
2023/07/20 08:06:16;;;;;;;91.85;54.70;;;21.00;70.50;;;;;;4955799;28;100733;-80
2023/07/20 08:08:42;;;;;;;90.53;54.65;;;21.00;70.20;;;;;;4954801;28;95316;-79
2023/07/20 08:11:08;;;;;;;91.18;54.53;;;21.00;69.50;;;;;;4958790;28;95995;-78
2023/07/20 08:13:34;;;;;;;90.72;54.58;;;21.00;70.10;;;;;;4964231;28;100222;-79
2023/07/20 08:16:02;;;;;;;92.00;54.50;;;21.00;70.30;;;;;;4966018;28;96194;-79
2023/07/20 08:18:27;;;;;;;94.00;54.92;;;21.10;70.90;;;;;;4962495;28;96933;-80
2023/07/20 08:20:53;;;;;;;92.43;55.08;;;21.10;70.40;;;;;;4960374;28;99690;-79
2023/07/20 08:23:19;;;;;;;92.63;55.30;;;21.10;71.80;;;;;;4959142;28;96638;-75
2023/07/20 08:25:45;;;;;;;91.47;55.13;;;21.10;71.10;;;;;;4960789;28;96077;-78
2023/07/20 08:28:12;;;;;;;90.70;54.50;;;21.20;71.20;;;;;;4965365;28;94991;-77
2023/07/20 08:30:42;;;;;;;92.03;55.03;;;21.20;69.30;;;;;;4960498;28;95838;-77
2023/07/20 08:33:09;;;;;;;90.50;54.67;;;21.20;70.70;;;;;;4965830;28;96591;-75
2023/07/20 08:35:34;;;;;;;89.78;54.58;;;21.20;69.90;;;;;;4960076;28;97018;-78
2023/07/20 08:38:00;;;;;;;90.90;54.72;;;21.20;69.50;;;;;;4965439;28;95848;-76
2023/07/20 08:40:26;;;;;;;93.00;55.28;;;21.20;71.30;;;;;;4944348;28;99331;-77
2023/07/20 08:42:54;;;;;;;89.82;54.35;;;21.30;70.30;;;;;;4941904;28;100212;-78
2023/07/20 08:45:22;;;;;;;91.20;54.80;;;21.30;69.30;;;;;;4945227;28;96762;-76
2023/07/20 08:47:49;;;;;;;90.93;54.55;;;21.40;70.30;;;;;;4943519;28;95766;-79
2023/07/20 08:50:16;;;;;;;92.82;55.13;;;21.40;69.00;;;;;;4938946;28;100034;-76
2023/07/20 08:52:41;;;;;;;91.00;54.88;;;21.50;70.10;;;;;;4942455;28;96349;-77
2023/07/20 08:55:07;;;;;;;95.00;55.13;;;21.60;69.50;;;;;;4945144;28;94730;-77
2023/07/20 08:57:34;;;;;;;89.88;54.35;;;21.60;69.60;;;;;;4944720;28;94465;-78
2023/07/20 09:00:12;;;;;;;90.72;54.92;;;21.60;68.50;;;;;;4945336;28;95890;-76
2023/07/20 09:02:42;;;;;;;91.53;55.05;;;21.70;68.50;;;;;;4945463;28;95742;-76
2023/07/20 09:05:09;;;;;;;94.57;55.50;;;21.60;68.90;;;;;;4940273;28;96178;-78
2023/07/20 09:07:36;;;;;;;91.45;55.33;;;21.70;68.60;;;;;;4946489;28;94947;-76
2023/07/20 09:10:05;;;;;;;91.35;55.05;;;21.80;68.70;;;;;;4941343;28;97207;-76
2023/07/20 09:12:34;;;;;;;91.90;55.38;;;21.80;68.10;;;;;;4941266;28;95017;-77
2023/07/20 09:15:00;;;;;;;91.82;55.15;;;21.80;68.60;;;;;;4944757;28;97137;-77
2023/07/20 09:17:26;;;;;;;91.72;55.67;;;21.80;68.00;;;;;;4950347;28;96854;-77
2023/07/20 09:19:51;;;;;;;91.03;54.90;;;21.80;68.40;;;;;;4950893;28;96832;-79
2023/07/20 09:22:17;;;;;;;91.55;55.35;;;21.80;68.00;;;;;;4946003;28;97975;-75
2023/07/20 09:24:44;;;;;;;90.82;55.20;;;21.80;68.20;;;;;;4942025;28;95421;-78
2023/07/20 09:27:10;;;;;;;93.90;55.83;;;21.90;68.10;;;;;;4947805;28;95573;-78
2023/07/20 09:29:51;;;;;;;107.55;59.90;;;21.90;68.40;;;;;;4947921;28;96831;-79
2023/07/20 09:32:20;;;;;;;116.03;62.65;;;22.00;67.30;;;;;;4949481;28;97828;-79
2023/07/20 09:34:46;;;;;;;107.32;61.08;;;22.10;67.10;;;;;;4945437;28;94697;-76
2023/07/20 09:37:12;;;;;;;99.75;58.13;;;22.10;67.10;;;;;;4949732;28;98956;-77
2023/07/20 09:39:45;;;;;;;101.43;58.72;;;22.10;67.20;;;;;;4950479;28;97417;-77
2023/07/20 09:42:12;;;;;;;96.45;57.35;;;22.20;67.30;;;;;;4964742;28;98939;-76
2023/07/20 09:44:39;;;;;;;102.45;59.03;;;22.30;66.90;;;;;;4964831;28;98120;-76
2023/07/20 09:47:05;;;;;;;98.65;57.45;;;22.40;66.30;;;;;;4965134;28;94564;-77
2023/07/20 09:49:31;;;;;;;100.78;59.15;;;22.40;66.50;;;;;;4962060;28;96799;-77
2023/07/20 09:52:00;;;;;;;99.97;57.92;;;22.40;66.20;;;;;;4965036;28;98948;-76
2023/07/20 09:54:28;;;;;;;103.38;59.35;;;22.40;66.20;;;;;;4959914;28;98174;-78
2023/07/20 09:56:54;;;;;;;98.22;58.28;;;22.40;65.60;;;;;;4960534;28;97788;-76
2023/07/20 09:59:20;;;;;;;98.38;58.35;;;22.50;66.70;;;;;;4953254;28;96556;-78
2023/07/20 10:01:47;;;;;;;103.47;59.38;;;22.50;66.70;;;;;;4961896;28;99318;-76
2023/07/20 10:04:16;;;;;;;96.82;57.42;;;22.50;66.30;;;;;;4963495;28;95691;-76
2023/07/20 10:06:46;;;;;;;99.55;58.38;;;22.50;66.80;;;;;;4963659;28;97108;-77
2023/07/20 10:09:14;;;;;;;101.80;59.00;;;22.60;66.90;;;;;;4964092;28;95542;-79
2023/07/20 10:11:48;;;;;;;104.25;58.75;;;22.60;65.30;;;;;;4960153;28;97849;-77
2023/07/20 10:14:20;;;;;;;98.50;58.33;;;22.60;66.10;;;;;;4960270;28;95951;-76
2023/07/20 10:16:58;;;;;;;96.70;58.40;;;22.60;64.70;;;;;;4967787;28;94983;-78
2023/07/20 10:19:44;;;;;;;96.95;58.20;;;22.60;64.20;;;;;;4967086;28;99747;-77
2023/07/20 10:22:17;;;;;;;98.80;57.92;;;22.60;63.20;;;;;;4965417;28;96056;-77
2023/07/20 10:24:47;;;;;;;96.93;57.88;;;22.60;63.50;;;;;;4965155;28;97852;-76
2023/07/20 10:27:14;;;;;;;99.03;58.43;;;22.50;65.10;;;;;;4967416;28;96624;-77
2023/07/20 10:29:40;;;;;;;96.10;57.72;;;22.60;64.10;;;;;;4961497;28;95666;-78
2023/07/20 10:32:08;;;;;;;98.78;58.70;;;22.60;64.30;;;;;;4966983;28;94976;-77
2023/07/20 10:34:33;;;;;;;96.05;57.38;;;22.60;63.70;;;;;;4967440;28;94930;-77
2023/07/20 10:36:59;;;;;;;95.60;57.72;;;22.60;63.80;;;;;;4968407;28;94585;-78
2023/07/20 10:39:27;;;;;;;96.82;57.60;;;22.60;62.60;;;;;;4961588;28;95319;-76
2023/07/20 10:42:06;;;;;;;95.03;57.15;;;22.60;61.70;;;;;;4958763;28;96387;-77
2023/07/20 10:44:32;;;;;;;93.97;56.75;;;22.60;63.80;;;;;;4965636;28;99332;-77
2023/07/20 10:47:02;;;;;;;96.93;57.10;;;22.60;63.00;;;;;;4964538;28;96876;-77
2023/07/20 10:49:28;;;;;;;94.65;56.92;;;22.60;64.30;;;;;;4962057;28;96449;-77
2023/07/20 10:52:01;;;;;;;95.18;57.22;;;22.60;63.70;;;;;;4960990;28;96026;-82
2023/07/20 10:54:27;;;;;;;97.20;58.20;;;22.60;63.00;;;;;;4967754;28;95196;-81
2023/07/20 10:56:54;;;;;;;96.20;57.80;;;22.60;62.40;;;;;;4969932;28;97377;-81
2023/07/20 10:59:37;;;;;;;95.55;57.30;;;22.70;62.60;;;;;;4971028;28;95598;-81
2023/07/20 11:02:07;;;;;;;96.45;57.28;;;22.70;62.50;;;;;;4970468;28;95450;-82
2023/07/20 11:04:40;;;;;;;98.65;57.33;;;22.70;62.50;;;;;;4964656;28;95094;-82
2023/07/20 11:07:07;;;;;;;95.35;56.85;;;22.70;62.30;;;;;;4967694;28;95043;-81
2023/07/20 11:09:37;;;;;;;95.07;56.75;;;22.80;63.50;;;;;;4964066;28;95811;-81
2023/07/20 11:12:17;;;;;;;99.38;57.38;;;22.80;62.20;;;;;;4947529;28;99890;-81
2023/07/20 11:14:53;;;;;;;93.40;56.38;;;22.80;62.50;;;;;;4958441;28;95214;-78
2023/07/20 11:17:22;;;;;;;94.45;56.85;;;22.90;64.10;;;;;;4940578;28;95771;-74
2023/07/20 11:19:56;;;;;;;95.35;56.17;;;22.90;63.50;;;;;;4945178;28;98736;-76
2023/07/20 11:22:21;;;;;;;92.93;56.15;;;22.90;64.60;;;;;;4962817;28;95626;-77
2023/07/20 11:24:49;;;;;;;96.25;56.75;;;22.90;65.60;;;;;;4965555;28;95421;-76
2023/07/20 11:27:15;;;;;;;94.05;56.40;;;22.90;64.80;;;;;;4965803;28;95184;-78
2023/07/20 11:29:40;;;;;;;94.20;56.45;;;22.90;64.60;;;;;;4963864;28;95213;-77
2023/07/20 11:32:06;;;;;;;93.57;56.55;;;22.90;64.10;;;;;;4960181;28;94986;-74
2023/07/20 11:34:33;;;;;;;93.43;56.25;;;23.00;64.00;;;;;;4960033;28;96141;-78
2023/07/20 11:36:59;;;;;;;92.50;56.35;;;23.00;65.00;;;;;;4961168;28;95434;-77
2023/07/20 11:39:25;;;;;;;94.53;56.70;;;23.00;64.60;;;;;;4957978;28;95388;-77
2023/07/20 11:41:53;;;;;;;100.20;56.45;;;23.00;64.20;;;;;;4958511;28;98774;-76
2023/07/20 11:44:20;;;;;;;94.00;56.53;;;23.10;65.40;;;;;;4962202;28;95339;-78
2023/07/20 11:46:46;;;;;;;93.75;56.50;;;23.10;63.80;;;;;;4963830;28;95348;-74
2023/07/20 11:49:12;;;;;;;94.47;56.70;;;23.10;65.10;;;;;;4963458;28;95458;-77
2023/07/20 11:51:39;;;;;;;93.22;56.33;;;23.10;65.00;;;;;;4962355;28;97923;-76
2023/07/20 11:54:07;;;;;;;93.53;56.20;;;23.10;64.40;;;;;;4962971;28;95007;-76
2023/07/20 11:56:32;;;;;;;93.32;56.25;;;23.10;64.60;;;;;;4966014;28;95039;-77
2023/07/20 11:59:00;;;;;;;95.00;56.67;;;23.20;64.80;;;;;;4959571;28;97188;-76
2023/07/20 12:01:31;;;;;;;96.80;56.72;;;23.20;64.90;;;;;;4940143;28;98075;-76
2023/07/20 12:03:59;;;;;;;94.63;56.72;;;23.20;63.50;;;;;;4957492;28;95329;-75
2023/07/20 12:06:25;;;;;;;94.95;56.72;;;23.20;63.80;;;;;;4957741;28;96323;-75
2023/07/20 12:08:55;;;;;;;93.60;56.58;;;23.30;64.90;;;;;;4958047;28;96050;-78
2023/07/20 12:11:38;;;;;;;93.85;56.45;;;23.30;63.60;;;;;;4960560;28;96774;-77
2023/07/20 12:14:07;;;;;;;93.55;56.22;;;23.30;63.60;;;;;;4964736;28;95686;-76
2023/07/20 12:16:33;;;;;;;92.88;56.50;;;23.30;63.90;;;;;;4963240;28;95959;-76
2023/07/20 12:19:12;;;;;;;92.60;56.25;;;23.40;64.30;;;;;;4962578;28;96409;-76
2023/07/20 12:21:40;;;;;;;95.60;56.38;;;23.40;64.30;;;;;;4964233;28;96541;-75
2023/07/20 12:24:07;;;;;;;92.65;56.22;;;23.40;63.60;;;;;;4961121;28;96347;-75
2023/07/20 12:26:33;;;;;;;94.50;56.17;;;23.50;63.30;;;;;;4963999;28;95136;-76